createdAt,value
2023-04-23T00:02:49.982Z,80.60
2023-04-23T00:05:52.709Z,90.43
2023-04-23T00:08:55.280Z,84.85
2023-04-23T00:11:58.041Z,78.28
2023-04-23T00:15:00.480Z,81.47
2023-04-23T00:18:02.060Z,86.60
2023-04-23T00:21:03.716Z,89.03
2023-04-23T00:24:05.665Z,80.43
2023-04-23T00:27:07.305Z,79.55
2023-04-23T00:30:09.830Z,75.32
2023-04-23T00:33:11.443Z,86.30
2023-04-23T00:36:12.993Z,94.32
2023-04-23T00:39:14.582Z,83.32
2023-04-23T00:42:17.099Z,81.68
2023-04-23T00:45:18.939Z,89.80
2023-04-23T00:48:21.049Z,93.40
2023-04-23T00:51:25.887Z,92.30
2023-04-23T00:54:28.065Z,83.88
2023-04-23T00:57:29.722Z,81.35
2023-04-23T01:00:31.370Z,76.32
2023-04-23T01:03:36.332Z,85.63
2023-04-23T01:06:38.240Z,81.63
2023-04-23T01:09:40.484Z,61.30
2023-04-23T01:12:42.061Z,74.68
2023-04-23T01:15:45.119Z,71.03
2023-04-23T01:18:47.030Z,68.63
2023-04-23T01:21:50.794Z,62.80
2023-04-23T01:24:52.633Z,64.43
2023-04-23T01:27:54.489Z,64.00
2023-04-23T01:30:56.843Z,63.75
2023-04-23T01:34:00.150Z,67.20
2023-04-23T01:37:04.284Z,62.83
2023-04-23T01:40:08.388Z,61.08
2023-04-23T01:43:10.956Z,64.53
2023-04-23T01:46:12.882Z,67.32
2023-04-23T01:49:14.734Z,59.83
2023-04-23T01:52:16.346Z,61.75
2023-04-23T01:55:19.223Z,64.45
2023-04-23T01:58:21.252Z,64.32
2023-04-23T02:01:22.949Z,61.08
2023-04-23T02:04:24.837Z,67.15
2023-04-23T02:07:26.561Z,66.50
2023-04-23T02:10:30.515Z,65.68
2023-04-23T02:13:32.810Z,59.58
2023-04-23T02:16:35.517Z,60.47
2023-04-23T02:19:37.070Z,62.30
2023-04-23T02:22:40.878Z,60.13
2023-04-23T02:25:43.549Z,56.40
2023-04-23T02:28:46.043Z,61.60
2023-04-23T02:31:47.665Z,61.67
2023-04-23T02:34:49.261Z,53.25
2023-04-23T02:37:51.294Z,66.03
2023-04-23T02:40:52.827Z,59.53
2023-04-23T02:43:54.410Z,59.65
2023-04-23T02:46:56.274Z,61.40
2023-04-23T02:49:58.148Z,59.88
2023-04-23T02:52:59.706Z,58.92
2023-04-23T02:56:02.433Z,67.95
2023-04-23T02:59:04.573Z,53.50
2023-04-23T03:02:06.175Z,61.92
2023-04-23T03:05:08.420Z,53.03
2023-04-23T03:08:09.982Z,57.40
2023-04-23T03:11:11.548Z,61.45
2023-04-23T03:14:13.117Z,54.75
2023-04-23T03:17:14.773Z,55.17
2023-04-23T03:20:16.344Z,57.40
2023-04-23T03:23:17.922Z,55.50
2023-04-23T03:26:19.476Z,55.95
2023-04-23T03:29:21.124Z,49.80
2023-04-23T03:32:22.720Z,51.80
2023-04-23T03:35:26.444Z,57.83
2023-04-23T03:38:28.040Z,52.33
2023-04-23T03:41:29.595Z,57.97
2023-04-23T03:44:31.221Z,52.75
2023-04-23T03:47:32.893Z,52.45
2023-04-23T03:50:38.769Z,56.30
2023-04-23T03:53:40.399Z,47.30
2023-04-23T03:56:42.000Z,52.08
2023-04-23T03:59:43.594Z,55.08
2023-04-23T04:02:45.217Z,48.00
2023-04-23T04:05:47.015Z,53.75
2023-04-23T04:08:48.582Z,52.30
2023-04-23T04:11:51.312Z,44.30
2023-04-23T04:14:53.823Z,48.88
2023-04-23T04:17:55.410Z,48.90
2023-04-23T04:20:56.966Z,45.03
2023-04-23T04:23:58.511Z,44.70
2023-04-23T04:27:01.621Z,49.60
2023-04-23T04:30:05.467Z,49.28
2023-04-23T04:33:07.008Z,39.17
2023-04-23T04:36:09.383Z,42.78
2023-04-23T04:39:11.012Z,39.25
2023-04-23T04:42:13.056Z,38.20
2023-04-23T04:45:15.248Z,39.22
2023-04-23T04:48:16.822Z,38.55
2023-04-23T04:51:18.396Z,38.88
2023-04-23T04:54:20.775Z,39.53
2023-04-23T04:57:23.051Z,37.22
2023-04-23T05:00:29.383Z,39.95
2023-04-23T05:03:31.382Z,37.40
2023-04-23T05:06:33.175Z,35.70
2023-04-23T05:09:34.793Z,36.42
2023-04-23T05:12:37.142Z,33.03
2023-04-23T05:15:38.842Z,35.25
2023-04-23T05:18:41.739Z,32.83
2023-04-23T05:21:43.608Z,35.67
2023-04-23T05:24:46.401Z,32.78
2023-04-23T05:27:48.007Z,35.08
2023-04-23T05:30:50.605Z,31.08
2023-04-23T05:33:53.062Z,27.95
2023-04-23T05:36:54.620Z,30.05
2023-04-23T05:39:57.409Z,27.30
2023-04-23T05:42:59.261Z,29.13
2023-04-23T05:46:00.855Z,29.50
2023-04-23T05:49:02.602Z,26.50
2023-04-23T05:52:04.536Z,27.55
2023-04-23T05:55:07.925Z,27.35
2023-04-23T05:58:09.855Z,25.45
2023-04-23T06:01:11.490Z,25.63
2023-04-23T06:04:13.713Z,27.67
2023-04-23T06:07:15.796Z,28.17
2023-04-23T06:10:17.377Z,25.92
2023-04-23T06:13:18.978Z,25.52
2023-04-23T06:16:20.579Z,35.78
2023-04-23T06:19:24.978Z,29.05
2023-04-23T06:22:26.525Z,28.42
2023-04-23T06:25:28.279Z,30.02
2023-04-23T06:28:29.949Z,26.13
2023-04-23T06:31:31.558Z,28.98
2023-04-23T06:34:33.138Z,32.13
2023-04-23T06:37:34.769Z,24.80
2023-04-23T06:40:36.409Z,25.33
2023-04-23T06:43:37.991Z,25.88
2023-04-23T06:46:39.582Z,26.42
2023-04-23T06:49:41.259Z,25.27
2023-04-23T06:52:43.364Z,29.10
2023-04-23T06:55:45.475Z,22.85
2023-04-23T06:58:47.181Z,25.17
2023-04-23T07:01:48.828Z,23.92
2023-04-23T07:04:50.408Z,22.13
2023-04-23T07:07:53.415Z,19.38
2023-04-23T07:10:55.689Z,21.42
2023-04-23T07:13:57.945Z,19.67
2023-04-23T07:16:59.603Z,19.38
2023-04-23T07:20:04.864Z,23.95
2023-04-23T07:23:06.522Z,19.30
2023-04-23T07:26:08.091Z,13.48
2023-04-23T07:29:14.028Z,18.45
2023-04-23T07:32:16.226Z,17.75
2023-04-23T07:35:18.706Z,17.70
2023-04-23T07:38:20.260Z,16.13
2023-04-23T07:41:21.830Z,15.38
2023-04-23T07:44:23.377Z,14.75
2023-04-23T07:47:25.036Z,16.55
2023-04-23T07:50:26.581Z,15.95
2023-04-23T07:53:28.605Z,17.33
2023-04-23T07:56:32.378Z,15.55
2023-04-23T07:59:34.080Z,11.25
2023-04-23T08:02:35.929Z,13.45
2023-04-23T08:05:39.061Z,11.23
2023-04-23T08:08:40.740Z,14.68
2023-04-23T08:11:42.366Z,15.57
2023-04-23T08:14:44.504Z,13.77
2023-04-23T08:17:46.063Z,13.05
2023-04-23T08:20:48.383Z,15.05
2023-04-23T08:23:49.964Z,10.63
2023-04-23T08:26:51.992Z,13.43
2023-04-23T08:29:53.546Z,16.63
2023-04-23T08:32:55.312Z,16.13
2023-04-23T08:35:56.949Z,17.95
2023-04-23T08:38:58.560Z,16.70
2023-04-23T08:42:09.942Z,12.57
2023-04-23T08:45:12.873Z,13.73
2023-04-23T08:48:14.706Z,13.98
2023-04-23T08:51:19.639Z,8.73
2023-04-23T08:54:28.776Z,10.88
2023-04-23T08:57:31.249Z,12.43
2023-04-23T09:00:34.488Z,11.00
2023-04-23T09:03:38.422Z,11.75
2023-04-23T09:06:40.238Z,14.13
2023-04-23T09:09:42.269Z,10.35
2023-04-23T09:12:44.874Z,11.10
2023-04-23T09:15:46.538Z,12.68
2023-04-23T09:18:49.700Z,8.40
2023-04-23T09:21:51.644Z,17.48
2023-04-23T09:24:54.430Z,14.13
2023-04-23T09:27:58.677Z,9.13
2023-04-23T09:31:00.809Z,14.45
2023-04-23T09:34:02.666Z,11.55
2023-04-23T09:37:06.064Z,12.43
2023-04-23T09:40:10.862Z,8.48
2023-04-23T09:43:12.473Z,8.32
2023-04-23T09:46:14.114Z,10.65
2023-04-23T09:49:15.891Z,8.80
2023-04-23T09:52:18.675Z,10.55
2023-04-23T09:55:29.038Z,7.47
2023-04-23T09:58:30.620Z,8.15
2023-04-23T10:01:32.223Z,8.77
2023-04-23T10:04:34.727Z,8.52
2023-04-23T10:07:37.835Z,9.43
2023-04-23T10:10:54.470Z,8.48
2023-04-23T10:13:58.853Z,9.35
2023-04-23T10:17:04.836Z,9.32
2023-04-23T10:20:08.305Z,5.70
2023-04-23T10:23:14.214Z,8.70
2023-04-23T10:26:19.404Z,6.82
2023-04-23T10:29:26.999Z,8.30
2023-04-23T10:32:29.372Z,5.88
2023-04-23T10:35:31.580Z,4.72
2023-04-23T10:38:33.875Z,7.88
2023-04-23T10:41:38.413Z,8.15
2023-04-23T10:47:48.163Z,9.02
2023-04-23T10:51:09.692Z,5.03
2023-04-23T10:54:19.858Z,12.43
2023-04-23T10:57:21.504Z,7.30
2023-04-23T11:00:23.180Z,6.00
2023-04-23T11:03:32.090Z,5.65
2023-04-23T11:06:48.894Z,8.18
2023-04-23T11:09:52.676Z,6.90
2023-04-23T11:12:56.300Z,8.10
2023-04-23T11:16:16.463Z,8.02
2023-04-23T11:19:20.560Z,6.25
2023-04-23T11:22:24.405Z,12.77
2023-04-23T11:25:27.751Z,11.32
2023-04-23T11:28:32.457Z,8.27
2023-04-23T11:31:34.511Z,5.90
2023-04-23T11:34:37.587Z,6.60
2023-04-23T11:37:43.633Z,8.00
2023-04-23T11:40:48.329Z,10.27
2023-04-23T11:43:49.866Z,9.45
2023-04-23T11:46:51.467Z,10.15
2023-04-23T11:49:53.011Z,7.82
2023-04-23T11:52:54.898Z,6.10
2023-04-23T11:55:56.496Z,11.73
2023-04-23T11:59:03.556Z,5.32
2023-04-23T12:02:05.500Z,6.43
2023-04-23T12:05:09.129Z,7.32
2023-04-23T12:08:14.558Z,8.73
2023-04-23T12:11:16.161Z,11.65
2023-04-23T12:14:20.932Z,4.57
2023-04-23T12:17:22.479Z,6.90
2023-04-23T12:20:24.212Z,7.93
2023-04-23T12:23:27.992Z,7.20
2023-04-23T12:26:29.735Z,5.70
2023-04-23T12:29:31.762Z,5.78
2023-04-23T12:32:34.373Z,8.95
2023-04-23T12:35:39.238Z,5.35
2023-04-23T12:38:42.350Z,8.80
2023-04-23T12:41:43.912Z,6.50
2023-04-23T12:44:45.900Z,5.63
2023-04-23T12:47:47.474Z,7.68
2023-04-23T12:50:49.118Z,6.05
2023-04-23T12:53:51.208Z,6.13
2023-04-23T12:56:53.651Z,5.57
2023-04-23T12:59:55.400Z,4.57
2023-04-23T13:02:57.311Z,6.90
2023-04-23T13:05:58.989Z,6.53
2023-04-23T13:09:03.810Z,4.63
2023-04-23T13:12:05.582Z,7.05
2023-04-23T13:15:09.170Z,8.13
2023-04-23T13:18:10.845Z,5.97
2023-04-23T13:21:12.386Z,5.20
2023-04-23T13:24:14.152Z,2.45
2023-04-23T13:27:15.987Z,7.07
2023-04-23T13:30:17.632Z,2.53
2023-04-23T13:33:21.091Z,5.72
2023-04-23T13:36:22.814Z,5.05
2023-04-23T13:39:24.638Z,4.00
2023-04-23T13:42:26.274Z,4.43
2023-04-23T13:45:27.952Z,4.53
2023-04-23T13:48:31.261Z,4.13
2023-04-23T13:51:35.272Z,4.10
2023-04-23T13:54:37.622Z,4.50
2023-04-23T13:57:39.994Z,5.45
2023-04-23T14:00:43.023Z,5.10
2023-04-23T14:03:44.953Z,5.80
2023-04-23T14:06:46.637Z,2.72
2023-04-23T14:09:52.589Z,5.85
2023-04-23T14:12:55.292Z,3.58
2023-04-23T14:15:56.968Z,7.20
2023-04-23T14:18:58.677Z,8.45
2023-04-23T14:22:00.791Z,6.38
2023-04-23T14:25:04.714Z,4.18
2023-04-23T14:28:28.369Z,4.85
2023-04-23T14:31:30.785Z,3.67
2023-04-23T14:34:35.602Z,4.97
2023-04-23T14:37:37.326Z,6.00
2023-04-23T14:40:38.962Z,5.03
2023-04-23T14:43:40.566Z,3.85
2023-04-23T14:46:42.295Z,4.93
2023-04-23T14:49:45.558Z,5.25
2023-04-23T14:52:48.685Z,5.43
2023-04-23T14:55:50.231Z,3.78
2023-04-23T14:58:51.793Z,3.92
2023-04-23T15:01:53.873Z,6.55
2023-04-23T15:04:56.533Z,3.35
2023-04-23T15:07:58.307Z,5.43
2023-04-23T15:11:00.080Z,2.60
2023-04-23T15:14:18.331Z,3.15
2023-04-23T15:17:19.899Z,3.42
2023-04-23T15:20:21.785Z,6.40
2023-04-23T15:23:24.097Z,4.13
2023-04-23T15:26:26.284Z,4.18
2023-04-23T15:29:28.253Z,2.90
2023-04-23T15:32:29.942Z,3.17
2023-04-23T15:35:31.536Z,3.13
2023-04-23T15:38:33.460Z,5.05
2023-04-23T15:41:39.508Z,2.80
2023-04-23T15:44:42.566Z,2.88
2023-04-23T15:47:44.218Z,5.97
2023-04-23T15:50:45.993Z,2.30
2023-04-23T15:53:47.782Z,3.58
2023-04-23T15:56:49.391Z,6.40
2023-04-23T15:59:51.003Z,4.35
2023-04-23T16:02:53.016Z,3.33
2023-04-23T16:05:54.660Z,3.80
2023-04-23T16:08:57.338Z,7.63
2023-04-23T16:11:59.677Z,4.30
2023-04-23T16:15:01.365Z,6.18
2023-04-23T16:18:03.328Z,4.60
2023-04-23T16:21:06.080Z,3.50
2023-04-23T16:24:07.950Z,5.28
2023-04-23T16:27:10.802Z,5.90
2023-04-23T16:30:12.700Z,7.82
2023-04-23T16:33:14.436Z,8.35
2023-04-23T16:36:16.168Z,6.32
2023-04-23T16:39:17.775Z,6.80
2023-04-23T16:42:19.507Z,6.35
2023-04-23T16:45:23.082Z,10.10
2023-04-23T16:48:24.906Z,9.60
2023-04-23T16:51:26.812Z,7.93
2023-04-23T16:54:28.618Z,5.55
2023-04-23T16:57:30.229Z,8.60
2023-04-23T17:00:32.197Z,10.88
2023-04-23T17:03:34.045Z,8.50
2023-04-23T17:06:35.987Z,7.18
2023-04-23T17:09:37.634Z,7.32
2023-04-23T17:12:39.201Z,8.48
2023-04-23T17:15:41.104Z,8.82
2023-04-23T17:18:42.766Z,8.55
2023-04-23T17:21:44.676Z,7.30
2023-04-23T17:24:46.214Z,8.77
2023-04-23T17:27:47.802Z,9.10
2023-04-23T17:30:53.736Z,9.02
2023-04-23T17:33:56.369Z,9.63
2023-04-23T17:36:57.977Z,8.52
2023-04-23T17:39:59.529Z,10.35
2023-04-23T17:43:01.199Z,8.98
2023-04-23T17:46:03.296Z,13.07
2023-04-23T17:49:05.094Z,10.18
2023-04-23T17:52:07.120Z,11.18
2023-04-23T17:55:08.830Z,7.80
2023-04-23T17:58:10.407Z,8.15
2023-04-23T18:01:12.270Z,8.88
2023-04-23T18:04:16.644Z,10.02
2023-04-23T18:07:19.209Z,6.90
2023-04-23T18:10:21.103Z,7.53
2023-04-23T18:13:22.824Z,8.95
2023-04-23T18:16:24.537Z,8.75
2023-04-23T18:19:26.149Z,6.95
2023-04-23T18:22:27.752Z,11.80
2023-04-23T18:25:30.183Z,5.55
2023-04-23T18:28:34.302Z,7.13
2023-04-23T18:31:37.552Z,10.02
2023-04-23T18:34:40.668Z,7.05
2023-04-23T18:37:48.771Z,5.63
2023-04-23T18:40:50.320Z,7.22
2023-04-23T18:43:51.906Z,4.93
2023-04-23T18:46:53.662Z,7.05
2023-04-23T18:50:02.812Z,3.72
2023-04-23T18:53:05.007Z,3.35
2023-04-23T18:56:06.562Z,6.05
2023-04-23T18:59:08.112Z,3.17
2023-04-23T19:02:11.832Z,5.63
2023-04-23T19:05:16.664Z,4.22
2023-04-23T19:08:18.291Z,4.43
2023-04-23T19:11:19.882Z,4.20
2023-04-23T19:14:21.606Z,2.50
2023-04-23T19:17:23.281Z,3.03
2023-04-23T19:20:24.899Z,5.95
2023-04-23T19:23:26.579Z,3.20
2023-04-23T19:26:28.121Z,4.68
2023-04-23T19:29:29.706Z,5.60
2023-04-23T19:32:35.131Z,4.63
2023-04-23T19:35:39.397Z,2.45
2023-04-23T19:38:42.130Z,8.00
2023-04-23T19:41:44.017Z,2.83
2023-04-23T19:44:47.852Z,5.60
2023-04-23T19:47:49.701Z,2.70
2023-04-23T19:50:51.408Z,3.92
2023-04-23T19:53:53.924Z,4.05
2023-04-23T19:56:55.754Z,2.35
2023-04-23T19:59:57.378Z,2.08
2023-04-23T20:02:59.156Z,4.60
2023-04-23T20:06:01.114Z,3.17
2023-04-23T20:09:20.017Z,2.78
2023-04-23T20:12:21.698Z,3.47
2023-04-23T20:15:25.772Z,3.10
2023-04-23T20:18:29.201Z,3.55
2023-04-23T20:21:31.768Z,3.28
2023-04-23T20:24:33.585Z,4.38
2023-04-23T20:27:35.427Z,5.88
2023-04-23T20:30:37.147Z,5.22
2023-04-23T20:33:39.272Z,4.13
2023-04-23T20:36:40.837Z,4.25
2023-04-23T20:39:43.174Z,2.35
2023-04-23T20:42:46.312Z,2.10
2023-04-23T20:45:47.922Z,1.98
2023-04-23T20:48:54.188Z,3.13
2023-04-23T20:51:56.547Z,3.45
2023-04-23T20:54:58.117Z,6.47
2023-04-23T20:57:59.676Z,3.90
2023-04-23T21:01:01.298Z,3.05
2023-04-23T21:04:03.243Z,2.95
2023-04-23T21:07:04.913Z,2.55
2023-04-23T21:10:07.306Z,1.63
2023-04-23T21:13:12.044Z,1.02
2023-04-23T21:16:14.158Z,2.63
2023-04-23T21:19:15.731Z,1.83
2023-04-23T21:22:17.761Z,2.67
2023-04-23T21:25:19.438Z,1.20
2023-04-23T21:28:21.123Z,1.20
2023-04-23T21:31:39.801Z,1.23
2023-04-23T21:34:41.531Z,1.90
2023-04-23T21:37:43.089Z,3.03
2023-04-23T21:40:44.955Z,2.17
2023-04-23T21:43:46.802Z,2.00
2023-04-23T21:46:49.078Z,1.63
2023-04-23T21:49:51.050Z,1.23
2023-04-23T21:52:53.276Z,1.23
2023-04-23T21:55:54.837Z,1.35
2023-04-23T21:58:56.683Z,1.15
2023-04-23T22:01:58.426Z,1.55
2023-04-23T22:05:00.045Z,2.58
2023-04-23T22:08:01.670Z,2.08
2023-04-23T22:11:04.397Z,2.78
2023-04-23T22:14:06.308Z,1.45
2023-04-23T22:17:10.161Z,1.40
2023-04-23T22:20:13.284Z,1.98
2023-04-23T22:23:18.491Z,2.40
2023-04-23T22:26:21.021Z,2.30
2023-04-23T22:29:22.529Z,3.20
2023-04-23T22:32:24.249Z,1.98
2023-04-23T22:35:28.215Z,4.15
2023-04-23T22:38:29.929Z,1.83
2023-04-23T22:41:33.168Z,2.60
2023-04-23T22:44:35.710Z,1.83
2023-04-23T22:47:37.539Z,3.17
2023-04-23T22:50:40.260Z,2.75
2023-04-23T22:53:41.843Z,3.33
2023-04-23T22:56:43.466Z,6.13
2023-04-23T22:59:45.301Z,3.65
2023-04-23T23:02:47.034Z,1.92
2023-04-23T23:05:48.631Z,2.20
2023-04-23T23:08:50.440Z,1.73
2023-04-23T23:11:52.130Z,3.13
2023-04-23T23:14:53.650Z,3.03
2023-04-23T23:17:55.463Z,2.30
2023-04-23T23:20:57.068Z,2.28
2023-04-23T23:23:58.727Z,3.35
2023-04-23T23:27:01.277Z,2.28
2023-04-23T23:30:06.075Z,2.17
2023-04-23T23:33:07.706Z,5.75
2023-04-23T23:36:09.326Z,2.75
2023-04-23T23:39:11.177Z,3.08
2023-04-23T23:42:12.794Z,1.55
2023-04-23T23:45:14.475Z,1.88
2023-04-23T23:48:16.078Z,1.98
2023-04-23T23:51:18.061Z,5.45
2023-04-23T23:54:19.634Z,5.40
2023-04-23T23:57:21.343Z,2.28
